Time;durP1;ratioP1;P1;durP2;ratioP2;P2;SDS_P1;SDS_P2;PMS_P1;PMS_P2;Temp;Humidity;BMP_temperature;BMP_pressure;BME280_temperature;BME280_humidity;BME280_pressure;Samples;Min_cycle;Max_cycle;Signal;HPM_P1;HPM_P2
2021/11/27 00:00:28;;;;;;;2.63;1.30;;;;;;;0.40;100.00;98209.97;2089850;28;20074;-69
2021/11/27 00:01:29;;;;;;;2.63;1.40;;;;;;;0.37;100.00;98194.69;2089871;28;20652;-69
2021/11/27 00:02:29;;;;;;;1.85;1.17;;;;;;;0.32;100.00;98201.78;2089844;28;20043;-69
2021/11/27 00:03:30;;;;;;;1.73;1.13;;;;;;;0.28;100.00;98200.25;2089883;28;20032;-70
2021/11/27 00:04:30;;;;;;;1.27;0.90;;;;;;;0.23;100.00;98203.00;2089079;28;20020;-70
2021/11/27 00:05:34;;;;;;;2.37;1.73;;;;;;;0.18;100.00;98194.66;2089284;28;20025;-70
2021/11/27 00:06:34;;;;;;;1.23;0.75;;;;;;;0.09;100.00;98195.88;2089810;28;20706;-69
2021/11/27 00:07:35;;;;;;;1.83;1.20;;;;;;;0.02;100.00;98195.31;2089815;28;20036;-70
2021/11/27 00:08:36;;;;;;;1.70;1.03;;;;;;;-0.04;100.00;98191.25;2089754;28;20121;-71
2021/11/27 00:09:36;;;;;;;1.95;0.98;;;;;;;-0.09;100.00;98194.91;2089814;28;20797;-70
2021/11/27 00:10:40;;;;;;;1.40;1.13;;;;;;;-0.16;100.00;98199.47;2089856;28;20028;-70
2021/11/27 00:11:41;;;;;;;2.00;0.95;;;;;;;-0.22;100.00;98203.09;2089824;28;20052;-69
2021/11/27 00:12:42;;;;;;;1.33;0.85;;;;;;;-0.28;100.00;98195.66;2089813;28;20017;-69
2021/11/27 00:13:42;;;;;;;2.10;1.38;;;;;;;-0.34;100.00;98194.16;2089884;28;20025;-68
2021/11/27 00:14:43;;;;;;;3.08;1.65;;;;;;;-0.40;100.00;98199.56;2089889;28;20409;-68
2021/11/27 00:15:46;;;;;;;4.23;1.40;;;;;;;-0.47;100.00;98198.13;2089920;28;20486;-68
2021/11/27 00:16:47;;;;;;;2.95;1.60;;;;;;;-0.54;100.00;98203.47;2089747;28;20098;-69
2021/11/27 00:17:47;;;;;;;2.20;0.77;;;;;;;-0.57;100.00;98201.06;2089948;28;20533;-70
2021/11/27 00:18:48;;;;;;;1.75;0.93;;;;;;;-0.61;100.00;98201.22;2089931;28;20487;-69
2021/11/27 00:19:50;;;;;;;4.30;2.78;;;;;;;-0.65;100.00;98203.91;2089887;28;20016;-68
2021/11/27 00:20:56;;;;;;;3.70;2.05;;;;;;;-0.69;100.00;98204.06;2089865;28;20111;-68
2021/11/27 00:21:56;;;;;;;4.93;2.80;;;;;;;-0.72;100.00;98211.91;2089209;28;20100;-68
2021/11/27 00:22:57;;;;;;;5.78;3.20;;;;;;;-0.78;100.00;98203.53;2089446;28;20056;-69
2021/11/27 00:23:57;;;;;;;3.97;2.03;;;;;;;-0.81;100.00;98213.94;2089944;28;20475;-68
2021/11/27 00:24:58;;;;;;;3.00;1.47;;;;;;;-0.82;100.00;98214.78;2089843;28;20112;-68
2021/11/27 00:25:59;;;;;;;3.28;1.33;;;;;;;-0.86;100.00;98213.25;2089862;28;20108;-68
2021/11/27 00:26:59;;;;;;;1.63;0.80;;;;;;;-0.88;100.00;98212.47;2090443;28;20482;-68
2021/11/27 00:28:00;;;;;;;1.87;0.90;;;;;;;-0.90;100.00;98211.69;2091423;28;20024;-68
2021/11/27 00:29:00;;;;;;;1.17;0.47;;;;;;;-0.92;100.00;98210.94;2090535;28;20068;-68
2021/11/27 00:30:06;;;;;;;2.65;0.60;;;;;;;-0.94;100.00;98215.25;2090907;28;20055;-68
2021/11/27 00:31:10;;;;;;;1.85;0.63;;;;;;;-0.95;100.00;98208.47;2091392;28;20489;-68
2021/11/27 00:32:10;;;;;;;1.17;0.50;;;;;;;-0.96;100.00;98206.81;2091306;28;20028;-69
2021/11/27 00:33:11;;;;;;;1.40;0.80;;;;;;;-0.96;100.00;98212.75;2091339;28;20031;-69
2021/11/27 00:34:13;;;;;;;1.10;0.60;;;;;;;-0.97;100.00;98208.53;2090644;28;20281;-69
2021/11/27 00:35:14;;;;;;;2.55;1.00;;;;;;;-0.99;100.00;98204.38;2090736;28;20033;-69
2021/11/27 00:36:15;;;;;;;2.58;0.75;;;;;;;-1.00;100.00;98211.19;2090589;28;20127;-69
2021/11/27 00:37:17;;;;;;;2.05;1.17;;;;;;;-1.00;100.00;98215.50;2090762;28;20104;-69
2021/11/27 00:38:17;;;;;;;1.50;1.05;;;;;;;-1.00;100.00;98218.06;2091466;28;20029;-70
2021/11/27 00:39:19;;;;;;;1.73;0.98;;;;;;;-1.00;100.00;98210.38;2091417;28;20486;-70
2021/11/27 00:40:20;;;;;;;2.17;1.05;;;;;;;-1.00;100.00;98220.63;2091271;28;20180;-69
2021/11/27 00:41:21;;;;;;;2.63;1.05;;;;;;;-1.01;100.00;98211.25;2091330;28;20037;-69
2021/11/27 00:42:21;;;;;;;2.30;1.20;;;;;;;-1.00;100.00;98215.50;2091339;28;20028;-69
2021/11/27 00:43:22;;;;;;;3.47;1.10;;;;;;;-1.00;100.00;98205.28;2091277;28;20025;-70
2021/11/27 00:44:24;;;;;;;2.85;1.13;;;;;;;-1.00;100.00;98210.38;2091290;28;20048;-69
2021/11/27 00:45:28;;;;;;;1.80;1.00;;;;;;;-1.01;100.00;98213.81;2091298;28;20025;-69
2021/11/27 00:46:29;;;;;;;2.38;1.27;;;;;;;-1.01;100.00;98208.69;2090633;28;20020;-69
2021/11/27 00:47:29;;;;;;;2.70;1.23;;;;;;;-1.00;100.00;98215.50;2090681;28;20063;-69
2021/11/27 00:48:30;;;;;;;2.37;1.03;;;;;;;-1.00;100.00;98215.50;2091287;28;20029;-69
2021/11/27 00:49:32;;;;;;;1.75;1.00;;;;;;;-1.01;100.00;98218.94;2091341;28;20482;-69
2021/11/27 00:50:40;;;;;;;0.95;0.77;;;;;;;-1.01;100.00;98211.25;2091301;28;20032;-69
2021/11/27 00:51:41;;;;;;;1.05;0.68;;;;;;;-1.01;100.00;98213.81;2090538;28;20032;-69
2021/11/27 00:52:41;;;;;;;2.15;1.00;;;;;;;-1.02;100.00;98219.84;2090534;28;20063;-69
2021/11/27 00:53:42;;;;;;;2.28;1.25;;;;;;;-1.02;100.00;98217.28;2091258;28;20108;-69
2021/11/27 00:54:43;;;;;;;3.35;1.10;;;;;;;-1.01;100.00;98218.94;2091335;28;20020;-68
2021/11/27 00:55:44;;;;;;;1.30;0.90;;;;;;;-1.02;100.00;98230.06;2091256;28;20048;-68
2021/11/27 00:56:45;;;;;;;1.85;1.20;;;;;;;-1.02;100.00;98223.25;2091073;28;20298;-68
2021/11/27 00:57:47;;;;;;;1.20;0.80;;;;;;;-1.02;100.00;98227.53;2091207;28;20397;-68
2021/11/27 00:58:48;;;;;;;1.63;0.80;;;;;;;-1.01;100.00;98224.06;2090535;28;20502;-69
2021/11/27 00:59:48;;;;;;;1.35;0.93;;;;;;;-1.02;100.00;98227.53;2090609;28;20347;-68
2021/11/27 01:00:53;;;;;;;1.33;1.00;;;;;;;-1.01;100.00;98226.63;2091207;28;20016;-70
2021/11/27 01:01:54;;;;;;;1.30;0.90;;;;;;;-1.02;100.00;98225.81;2091166;28;20025;-69
2021/11/27 01:02:54;;;;;;;1.77;1.40;;;;;;;-1.02;100.00;98227.53;2090479;28;20053;-70
2021/11/27 01:03:55;;;;;;;1.97;1.33;;;;;;;-1.02;100.00;98224.97;2090467;28;20120;-69
2021/11/27 01:04:56;;;;;;;2.78;1.05;;;;;;;-1.03;100.00;98226.66;2090489;28;20052;-70
2021/11/27 01:05:59;;;;;;;2.42;1.10;;;;;;;-1.05;100.00;98224.19;2090320;28;20029;-70
2021/11/27 01:06:59;;;;;;;2.10;1.08;;;;;;;-1.05;100.00;98226.75;2090408;28;20029;-70
2021/11/27 01:08:00;;;;;;;2.03;1.05;;;;;;;-1.04;100.00;98230.13;2082073;28;20078;-69
2021/11/27 01:09:08;;;;;;;1.33;1.10;;;;;;;-1.04;100.00;98225.84;2090459;28;20486;-69
2021/11/27 01:10:14;;;;;;;2.33;1.20;;;;;;;-1.04;100.00;98220.75;2091084;28;20031;-69
2021/11/27 01:11:23;;;;;;;1.88;1.08;;;;;;;-1.04;100.00;98225.00;2091089;28;20032;-70
2021/11/27 01:12:23;;;;;;;1.92;1.40;;;;;;;-1.06;100.00;98227.63;2091010;28;20032;-69
2021/11/27 01:13:25;;;;;;;2.15;1.40;;;;;;;-1.06;100.00;98230.19;2090363;28;20021;-69
2021/11/27 01:14:28;;;;;;;1.50;1.13;;;;;;;-1.05;100.00;98224.19;2090483;28;20111;-68
2021/11/27 01:15:30;;;;;;;1.85;1.38;;;;;;;-1.04;100.00;98230.13;2091059;28;20032;-68
2021/11/27 01:16:33;;;;;;;1.88;1.20;;;;;;;-1.04;100.00;98230.97;2091001;28;20044;-68
2021/11/27 01:17:34;;;;;;;1.90;1.45;;;;;;;-1.05;100.00;98223.34;2090986;28;20025;-68
2021/11/27 01:18:35;;;;;;;2.08;1.58;;;;;;;-1.06;100.00;98230.19;2091064;28;20545;-68
2021/11/27 01:19:37;;;;;;;;;;;;;;;-1.05;100.00;98226.75;2091551;28;20437;-69
2021/11/27 01:20:45;;;;;;;1.77;1.15;;;;;;;-1.05;100.00;98224.19;2090341;28;19908;-68
2021/11/27 01:21:53;;;;;;;2.38;1.60;;;;;;;-1.04;100.00;98222.44;2090493;28;20460;-69
2021/11/27 01:22:55;;;;;;;2.25;1.60;;;;;;;-1.05;100.00;98229.31;2090909;28;20033;-68
2021/11/27 01:23:58;;;;;;;2.80;1.83;;;;;;;-1.05;100.00;98229.31;2090961;28;20016;-68
2021/11/27 01:24:58;;;;;;;2.30;2.10;;;;;;;-1.06;100.00;98227.63;2090995;28;20044;-68
2021/11/27 01:25:59;;;;;;;2.30;1.70;;;;;;;-1.06;100.00;98231.94;2090952;28;20029;-69
2021/11/27 01:27:00;;;;;;;1.88;1.60;;;;;;;-1.05;100.00;98229.31;2091040;28;20064;-69
2021/11/27 01:28:01;;;;;;;3.00;1.70;;;;;;;-1.04;100.00;98233.53;2090973;28;20118;-70
2021/11/27 01:29:02;;;;;;;1.90;1.70;;;;;;;-1.04;100.00;98230.13;2090075;28;20500;-70
2021/11/27 01:30:10;;;;;;;2.90;1.80;;;;;;;-1.03;100.00;98226.66;2082456;28;20132;-70
2021/11/27 01:31:10;;;;;;;2.22;1.88;;;;;;;-1.04;100.00;98230.97;2090421;28;20494;-70
2021/11/27 01:32:14;;;;;;;1.97;1.77;;;;;;;-1.05;100.00;98224.19;2090920;28;20036;-70
2021/11/27 01:33:15;;;;;;;2.00;1.70;;;;;;;-1.06;100.00;98235.31;2090222;28;20332;-70
2021/11/27 01:34:15;;;;;;;2.05;1.77;;;;;;;-1.06;100.00;98232.75;2090418;28;20579;-70
2021/11/27 01:35:16;;;;;;;2.15;1.77;;;;;;;-1.06;100.00;98232.75;2090912;28;20029;-70
2021/11/27 01:36:17;;;;;;;2.85;1.80;;;;;;;-1.05;100.00;98234.44;2090803;28;20494;-69
2021/11/27 01:37:17;;;;;;;5.10;2.08;;;;;;;-1.04;100.00;98232.69;2090151;28;20037;-69
2021/11/27 01:38:19;;;;;;;2.33;1.80;;;;;;;-1.05;100.00;98224.19;2089800;28;20031;-69
2021/11/27 01:39:20;;;;;;;1.92;1.67;;;;;;;-1.04;100.00;98230.97;2090858;28;20043;-69
2021/11/27 01:40:23;;;;;;;2.13;1.90;;;;;;;-1.02;100.00;98233.47;2090843;28;20048;-70
2021/11/27 01:41:25;;;;;;;2.47;1.65;;;;;;;-1.04;100.00;98233.53;2090785;28;20032;-69
2021/11/27 01:42:26;;;;;;;3.25;1.73;;;;;;;-1.01;100.00;98231.75;2090814;28;20036;-69
2021/11/27 01:43:27;;;;;;;2.60;1.73;;;;;;;-1.02;100.00;98227.53;2090832;28;20478;-70
2021/11/27 01:44:27;;;;;;;2.20;2.00;;;;;;;-0.99;100.00;98227.41;2090769;28;20104;-70
2021/11/27 01:45:28;;;;;;;1.85;1.60;;;;;;;-0.99;100.00;98227.41;2090800;28;20039;-70
2021/11/27 01:46:29;;;;;;;2.45;1.73;;;;;;;-0.97;100.00;98221.34;2090841;28;20506;-71
2021/11/27 01:47:29;;;;;;;2.78;2.20;;;;;;;-0.97;100.00;98220.50;2090819;28;20060;-71
2021/11/27 01:48:30;;;;;;;2.63;2.00;;;;;;;-0.99;100.00;98217.16;2090100;28;20107;-71
2021/11/27 01:49:31;;;;;;;2.53;2.17;;;;;;;-0.98;100.00;98218.84;2090193;28;20057;-72
2021/11/27 01:50:34;;;;;;;;;;;;;;;-0.98;100.00;98213.72;2090563;28;20025;-73
2021/11/27 01:51:36;;;;;;;2.50;2.30;;;;;;;-0.98;100.00;98216.28;2090168;28;19998;-73
2021/11/27 01:52:37;;;;;;;2.65;1.65;;;;;;;-0.99;100.00;98219.72;2090028;28;20063;-72
2021/11/27 01:53:41;;;;;;;2.60;1.98;;;;;;;-0.99;100.00;98217.97;2090091;28;20041;-73
2021/11/27 01:54:42;;;;;;;2.38;2.13;;;;;;;-0.98;100.00;98213.72;2090666;28;20475;-73
2021/11/27 01:55:43;;;;;;;2.38;2.03;;;;;;;-0.95;100.00;98223.84;2090766;28;20024;-72
2021/11/27 01:56:49;;;;;;;2.55;1.98;;;;;;;-0.93;100.00;98232.28;2090708;28;20033;-73
2021/11/27 01:57:49;;;;;;;3.63;2.20;;;;;;;-0.92;100.00;98239.09;2090730;28;20116;-73
2021/11/27 01:58:50;;;;;;;2.40;2.13;;;;;;;-0.90;100.00;98244.97;2090812;28;20494;-73
2021/11/27 01:59:50;;;;;;;2.75;2.15;;;;;;;-0.89;100.00;98240.72;2090181;28;20025;-75
2021/11/27 02:00:56;;;;;;;3.90;2.33;;;;;;;-0.88;100.00;98238.09;2081790;28;20017;-75
2021/11/27 02:01:57;;;;;;;4.80;2.13;;;;;;;-0.88;100.00;98237.25;2090207;28;20021;-74
2021/11/27 02:02:57;;;;;;;3.08;2.50;;;;;;;-0.88;100.00;98240.66;2090621;28;20027;-73
2021/11/27 02:03:58;;;;;;;4.73;2.60;;;;;;;-0.87;100.00;98242.31;2090651;28;20497;-73
2021/11/27 02:04:59;;;;;;;3.72;2.50;;;;;;;-0.86;100.00;98248.28;2090758;28;20031;-72
2021/11/27 02:06:00;;;;;;;3.50;2.33;;;;;;;-0.86;100.00;98243.16;2090637;28;20040;-73
2021/11/27 02:07:00;;;;;;;3.30;2.33;;;;;;;-0.87;100.00;98242.31;2090704;28;20341;-72
2021/11/27 02:08:01;;;;;;;3.88;2.80;;;;;;;-0.87;100.00;98250.00;2090706;28;20029;-72
2021/11/27 02:09:06;;;;;;;4.30;3.20;;;;;;;-0.86;100.00;98251.66;2090770;28;20040;-74
2021/11/27 02:10:10;;;;;;;3.90;3.30;;;;;;;-0.87;100.00;98244.88;2090736;28;20028;-72
2021/11/27 02:11:15;;;;;;;5.78;3.65;;;;;;;-0.87;100.00;98241.47;2089874;28;20091;-71
2021/11/27 02:12:16;;;;;;;5.10;3.30;;;;;;;-0.88;100.00;98240.66;2090055;28;20055;-72
2021/11/27 02:13:17;;;;;;;3.80;3.35;;;;;;;-0.89;100.00;98243.28;2090597;28;20033;-72
2021/11/27 02:14:18;;;;;;;4.28;3.55;;;;;;;-0.88;100.00;98245.78;2090656;28;20044;-72
2021/11/27 02:15:19;;;;;;;4.97;3.53;;;;;;;-0.88;100.00;98245.78;2090608;28;20017;-70
2021/11/27 02:16:20;;;;;;;3.60;2.97;;;;;;;-0.88;100.00;98256.03;2089893;28;20112;-71
2021/11/27 02:17:20;;;;;;;4.18;3.58;;;;;;;-0.87;100.00;98249.16;2090046;28;20516;-70
2021/11/27 02:18:21;;;;;;;5.80;4.17;;;;;;;-0.87;100.00;98259.41;2090569;28;20053;-70
2021/11/27 02:19:22;;;;;;;5.43;4.23;;;;;;;-0.87;100.00;98252.56;2090590;28;20470;-68
2021/11/27 02:20:22;;;;;;;4.47;4.05;;;;;;;-0.87;100.00;98251.72;2090549;28;20032;-69
2021/11/27 02:21:24;;;;;;;4.13;3.73;;;;;;;-0.87;100.00;98257.69;2090562;28;20115;-69
2021/11/27 02:22:25;;;;;;;4.07;3.67;;;;;;;-0.85;100.00;98252.50;2090560;28;20330;-69
2021/11/27 02:23:28;;;;;;;4.55;3.90;;;;;;;-0.85;100.00;98255.91;2089935;28;20021;-67
2021/11/27 02:24:30;;;;;;;4.70;4.03;;;;;;;-0.86;100.00;98254.22;2089931;28;20143;-67
2021/11/27 02:25:31;;;;;;;;;;;;;;;-0.84;100.00;98252.44;2090904;28;20356;-68
2021/11/27 02:26:34;;;;;;;4.70;3.90;;;;;;;-0.84;100.00;98260.13;2090546;28;19915;-66
2021/11/27 02:27:34;;;;;;;4.30;3.78;;;;;;;-0.83;100.00;98261.78;2090524;28;20060;-67
2021/11/27 02:28:37;;;;;;;5.73;4.27;;;;;;;-0.84;100.00;98257.56;2090379;28;20032;-66
2021/11/27 02:29:38;;;;;;;5.60;4.43;;;;;;;-0.84;100.00;98262.69;2090590;28;20501;-66
2021/11/27 02:30:40;;;;;;;4.70;3.88;;;;;;;-0.84;100.00;98262.69;2090510;28;20379;-65
2021/11/27 02:31:42;;;;;;;7.20;4.10;;;;;;;-0.84;100.00;98270.38;2090382;28;20013;-66
2021/11/27 02:32:43;;;;;;;4.85;3.78;;;;;;;-0.83;100.00;98266.91;2090407;28;20059;-66
2021/11/27 02:33:43;;;;;;;5.35;4.03;;;;;;;-0.82;100.00;98266.03;2090481;28;20386;-66
2021/11/27 02:34:44;;;;;;;5.00;4.20;;;;;;;-0.81;100.00;98272.00;2090028;28;20029;-68
2021/11/27 02:35:45;;;;;;;4.13;3.53;;;;;;;-0.81;100.00;98275.41;2089966;28;20379;-68
2021/11/27 02:36:54;;;;;;;4.60;3.85;;;;;;;-0.81;100.00;98272.84;2089721;28;20029;-69
2021/11/27 02:37:55;;;;;;;4.07;3.55;;;;;;;-0.81;100.00;98270.28;2090002;28;20064;-68
2021/11/27 02:38:58;;;;;;;4.27;3.40;;;;;;;-0.81;100.00;98262.59;2089794;28;20542;-69
2021/11/27 02:39:59;;;;;;;4.57;4.10;;;;;;;-0.80;100.00;98260.84;2081865;28;20287;-69
2021/11/27 02:40:59;;;;;;;5.57;3.55;;;;;;;-0.79;100.00;98260.78;2089906;28;20103;-69
2021/11/27 02:42:00;;;;;;;5.47;4.00;;;;;;;-0.78;100.00;98267.56;2090346;28;20029;-69
2021/11/27 02:43:01;;;;;;;4.38;3.72;;;;;;;-0.80;100.00;98261.69;2089663;28;20422;-69
2021/11/27 02:44:01;;;;;;;4.30;3.75;;;;;;;-0.80;100.00;98264.25;2089756;28;20021;-69
2021/11/27 02:45:05;;;;;;;4.38;3.60;;;;;;;-0.80;100.00;98266.81;2090380;28;20074;-69
2021/11/27 02:46:06;;;;;;;4.35;3.65;;;;;;;-0.80;100.00;98261.69;2090394;28;20056;-68
2021/11/27 02:47:08;;;;;;;3.30;2.97;;;;;;;-0.79;100.00;98265.91;2090378;28;20029;-69
2021/11/27 02:48:10;;;;;;;4.57;3.40;;;;;;;-0.77;100.00;98268.41;2090372;28;20109;-69
2021/11/27 02:49:11;;;;;;;4.20;3.65;;;;;;;-0.76;100.00;98272.63;2090069;28;20032;-68
2021/11/27 02:50:13;;;;;;;4.27;3.27;;;;;;;-0.75;100.00;98278.63;2089173;28;20029;-68
2021/11/27 02:51:14;;;;;;;4.22;3.30;;;;;;;-0.74;100.00;98276.00;2089773;28;20410;-68
2021/11/27 02:52:15;;;;;;;4.90;3.88;;;;;;;-0.73;100.00;98271.69;2089681;28;20028;-68
2021/11/27 02:53:16;;;;;;;4.60;3.80;;;;;;;-0.75;100.00;98271.78;2089772;28;20025;-69
2021/11/27 02:54:17;;;;;;;5.22;3.42;;;;;;;-0.74;100.00;98275.16;2090198;28;20029;-68
2021/11/27 02:55:17;;;;;;;5.18;3.63;;;;;;;-0.73;100.00;98274.25;2090267;28;20035;-68
2021/11/27 02:56:18;;;;;;;4.28;3.45;;;;;;;-0.72;100.00;98278.50;2090090;28;20029;-69
2021/11/27 02:57:18;;;;;;;3.80;3.25;;;;;;;-0.71;100.00;98277.59;2090333;28;20059;-70
2021/11/27 02:58:19;;;;;;;4.70;3.72;;;;;;;-0.71;100.00;98275.03;2089643;28;20547;-69
2021/11/27 02:59:23;;;;;;;5.60;3.95;;;;;;;-0.70;100.00;98276.69;2089617;28;20036;-69
2021/11/27 03:00:24;;;;;;;5.78;4.35;;;;;;;-0.70;100.00;98279.25;2089529;28;20024;-69
2021/11/27 03:01:25;;;;;;;5.72;4.13;;;;;;;-0.70;100.00;98280.09;2089604;28;20154;-70
2021/11/27 03:02:26;;;;;;;5.68;4.35;;;;;;;-0.69;100.00;98276.66;2090189;28;20433;-70
2021/11/27 03:03:27;;;;;;;5.15;3.83;;;;;;;-0.68;100.00;98277.50;2090355;28;20025;-70
2021/11/27 03:04:30;;;;;;;5.35;3.95;;;;;;;-0.68;100.00;98277.50;2089509;28;20528;-70
2021/11/27 03:05:31;;;;;;;4.65;3.60;;;;;;;-0.68;100.00;98280.06;2089505;28;20130;-70
2021/11/27 03:06:33;;;;;;;5.88;4.35;;;;;;;-0.68;100.00;98282.63;2089556;28;20140;-70
2021/11/27 03:07:33;;;;;;;4.18;3.47;;;;;;;-0.69;100.00;98270.69;2090233;28;20481;-71
2021/11/27 03:08:36;;;;;;;7.13;4.32;;;;;;;-0.68;100.00;98267.25;2090173;28;20078;-70
2021/11/27 03:09:37;;;;;;;4.60;3.72;;;;;;;-0.68;100.00;98277.50;2090172;28;20029;-70
2021/11/27 03:10:37;;;;;;;5.70;3.47;;;;;;;-0.68;100.00;98269.81;2090239;28;20024;-70
2021/11/27 03:11:38;;;;;;;5.85;4.00;;;;;;;-0.70;100.00;98262.19;2090239;28;20029;-70
2021/11/27 03:12:39;;;;;;;6.90;4.45;;;;;;;-0.70;100.00;98269.00;2090223;28;20506;-70
2021/11/27 03:13:40;;;;;;;5.05;3.92;;;;;;;-0.71;100.00;98267.34;2090220;28;20029;-71
2021/11/27 03:14:40;;;;;;;5.45;4.45;;;;;;;-0.72;100.00;98270.81;2089520;28;20094;-71
2021/11/27 03:15:41;;;;;;;6.15;4.25;;;;;;;-0.74;100.00;98275.16;2089572;28;20470;-71
2021/11/27 03:16:42;;;;;;;7.40;4.65;;;;;;;-0.76;100.00;98264.97;2089732;28;20056;-71
2021/11/27 03:17:44;;;;;;;6.50;4.15;;;;;;;-0.78;100.00;98277.81;2090215;28;20481;-70
2021/11/27 03:18:44;;;;;;;;;;;;;;;-0.78;100.00;98272.69;2089869;28;20565;-71
2021/11/27 03:19:45;;;;;;;5.60;4.18;;;;;;;-0.79;100.00;98276.16;2089522;28;19908;-66
2021/11/27 03:20:45;;;;;;;5.63;4.00;;;;;;;-0.82;100.00;98278.81;2089418;28;20470;-65
2021/11/27 03:21:47;;;;;;;7.83;5.13;;;;;;;-0.82;100.00;98278.00;2089564;28;20315;-65
2021/11/27 03:22:48;;;;;;;6.40;4.47;;;;;;;-0.83;100.00;98281.44;2090060;28;20485;-65
2021/11/27 03:23:49;;;;;;;6.18;4.30;;;;;;;-0.83;100.00;98284.84;2090163;28;20096;-66
2021/11/27 03:24:51;;;;;;;6.97;4.88;;;;;;;-0.83;100.00;98284.84;2090120;28;20421;-65
2021/11/27 03:25:52;;;;;;;;;;;;;;;-0.81;100.00;98287.34;2090498;28;20027;-65
2021/11/27 03:26:53;;;;;;;5.77;4.37;;;;;;;-0.82;100.00;98281.38;2090230;28;19913;-66
2021/11/27 03:27:54;;;;;;;6.10;4.38;;;;;;;-0.81;100.00;98280.53;2090103;28;20344;-66
2021/11/27 03:28:55;;;;;;;7.10;4.97;;;;;;;-0.80;100.00;98284.75;2089928;28;20033;-66
2021/11/27 03:29:55;;;;;;;7.18;4.60;;;;;;;-0.81;100.00;98283.06;2090172;28;20017;-66
2021/11/27 03:30:56;;;;;;;7.73;4.70;;;;;;;-0.83;100.00;98286.56;2090029;28;20029;-66
2021/11/27 03:32:06;;;;;;;8.65;5.10;;;;;;;-0.86;100.00;98277.28;2090066;28;20092;-67
2021/11/27 03:33:07;;;;;;;7.35;4.30;;;;;;;-0.86;100.00;98284.94;2090034;28;20029;-67
2021/11/27 03:34:07;;;;;;;7.30;5.05;;;;;;;-0.88;100.00;98279.06;2090076;28;20029;-68
2021/11/27 03:35:09;;;;;;;7.88;4.90;;;;;;;-0.92;100.00;98283.44;2090104;28;20496;-68
2021/11/27 03:36:09;;;;;;;8.43;4.90;;;;;;;-0.95;100.00;98287.84;2089324;28;20031;-68
2021/11/27 03:37:11;;;;;;;9.20;5.15;;;;;;;-0.93;100.00;98283.50;2089507;28;20116;-68
2021/11/27 03:38:11;;;;;;;8.02;5.53;;;;;;;-0.91;100.00;98282.56;2090027;28;20025;-68
2021/11/27 03:39:13;;;;;;;7.72;4.85;;;;;;;-0.91;100.00;98291.97;2090001;28;20105;-68
2021/11/27 03:40:16;;;;;;;7.47;4.90;;;;;;;-0.93;100.00;98288.63;2090002;28;20024;-68
2021/11/27 03:41:16;;;;;;;7.80;4.82;;;;;;;-0.94;100.00;98287.81;2089355;28;20083;-68
2021/11/27 03:42:17;;;;;;;7.22;5.50;;;;;;;-0.95;100.00;98290.41;2089462;28;20056;-69
2021/11/27 03:43:18;;;;;;;8.50;5.28;;;;;;;-0.97;100.00;98292.19;2089919;28;20078;-69
2021/11/27 03:44:18;;;;;;;7.82;5.00;;;;;;;-0.98;100.00;98293.94;2090033;28;20025;-69
2021/11/27 03:45:22;;;;;;;8.13;4.78;;;;;;;-0.97;100.00;98298.16;2089406;28;20083;-69
2021/11/27 03:46:22;;;;;;;8.70;5.65;;;;;;;-1.00;100.00;98292.31;2089438;28;20086;-69
2021/11/27 03:47:23;;;;;;;11.23;6.67;;;;;;;-0.99;100.00;98294.78;2089275;28;20028;-69
2021/11/27 03:48:34;;;;;;;8.55;5.25;;;;;;;-0.98;100.00;98295.66;2089439;28;20533;-69
2021/11/27 03:49:35;;;;;;;9.75;6.13;;;;;;;-0.97;100.00;98297.31;2089982;28;20028;-70
2021/11/27 03:50:40;;;;;;;8.80;6.22;;;;;;;-0.96;100.00;98296.44;2089344;28;20028;-70
2021/11/27 03:51:41;;;;;;;12.10;5.47;;;;;;;-0.97;100.00;98298.16;2089400;28;20108;-70
2021/11/27 03:52:41;;;;;;;8.87;5.10;;;;;;;-0.94;100.00;98297.19;2089943;28;20461;-70
2021/11/27 03:53:44;;;;;;;7.70;5.20;;;;;;;-0.88;100.00;98302.13;2089953;28;20079;-69
2021/11/27 03:54:46;;;;;;;11.75;5.78;;;;;;;-0.84;100.00;98308.78;2089785;28;20047;-69
2021/11/27 03:55:47;;;;;;;10.57;6.07;;;;;;;-0.82;100.00;98307.00;2089296;28;20036;-70
2021/11/27 03:56:48;;;;;;;7.03;5.07;;;;;;;-0.82;100.00;98306.19;2080935;28;20071;-70
2021/11/27 03:57:49;;;;;;;10.48;5.60;;;;;;;-0.82;100.00;98307.00;2089240;28;20036;-72
2021/11/27 03:58:50;;;;;;;10.17;5.63;;;;;;;-0.82;100.00;98301.88;2089350;28;20456;-70
2021/11/27 03:59:50;;;;;;;10.00;6.07;;;;;;;-0.81;100.00;98307.84;2089909;28;20016;-71
2021/11/27 04:00:52;;;;;;;8.93;5.03;;;;;;;-0.82;100.00;98301.88;2089533;28;20044;-70
2021/11/27 04:01:53;;;;;;;9.88;5.63;;;;;;;-0.82;100.00;98301.88;2090987;28;20287;-70
2021/11/27 04:02:54;;;;;;;9.20;5.93;;;;;;;-0.82;100.00;98308.75;2091571;28;20025;-70
2021/11/27 04:03:57;;;;;;;10.32;5.90;;;;;;;-0.83;100.00;98302.78;2091558;28;20095;-70
2021/11/27 04:04:58;;;;;;;9.65;5.30;;;;;;;-0.81;100.00;98298.44;2091584;28;20013;-69
2021/11/27 04:06:00;;;;;;;9.43;5.53;;;;;;;-0.83;100.00;98307.91;2091547;28;20104;-69
2021/11/27 04:07:02;;;;;;;8.30;5.22;;;;;;;-0.82;100.00;98301.88;2091482;28;20394;-69
2021/11/27 04:08:02;;;;;;;9.07;5.50;;;;;;;-0.82;100.00;98312.13;2091483;28;20390;-68
2021/11/27 04:09:07;;;;;;;8.60;5.53;;;;;;;-0.80;100.00;98305.22;2091584;28;20025;-69
2021/11/27 04:10:08;;;;;;;8.00;5.07;;;;;;;-0.79;100.00;98304.31;2091516;28;20291;-70
2021/11/27 04:11:08;;;;;;;8.75;5.00;;;;;;;-0.76;100.00;98307.69;2090764;28;20498;-70
2021/11/27 04:12:09;;;;;;;8.77;5.47;;;;;;;-0.74;100.00;98311.00;2090834;28;20041;-70
2021/11/27 04:13:10;;;;;;;10.73;5.70;;;;;;;-0.72;100.00;98314.38;2090976;28;20047;-70
2021/11/27 04:14:10;;;;;;;9.32;5.50;;;;;;;-0.71;100.00;98319.44;2090833;28;20311;-70
2021/11/27 04:15:11;;;;;;;9.10;5.70;;;;;;;-0.68;100.00;98318.47;2090976;28;20421;-70
2021/11/27 04:16:11;;;;;;;11.55;5.70;;;;;;;-0.65;100.00;98315.81;2091509;28;20394;-71
2021/11/27 04:17:13;;;;;;;8.93;5.05;;;;;;;-0.62;100.00;98318.25;2090851;28;20033;-70
2021/11/27 04:18:14;;;;;;;;;;;;;;;-0.58;100.00;98319.78;2091365;28;20113;-71
2021/11/27 04:19:14;;;;;;;9.90;5.45;;;;;;;-0.59;100.00;98323.25;2091491;28;20297;-71
2021/11/27 04:20:16;;;;;;;7.28;4.60;;;;;;;-0.58;100.00;98319.78;2091447;28;20028;-70
2021/11/27 04:21:18;;;;;;;10.85;5.40;;;;;;;-0.56;100.00;98325.72;2091574;28;20103;-70
2021/11/27 04:22:18;;;;;;;11.13;5.10;;;;;;;-0.58;100.00;98324.09;2091448;28;20029;-71
2021/11/27 04:23:19;;;;;;;10.87;5.63;;;;;;;-0.62;100.00;98325.09;2091412;28;20087;-70
2021/11/27 04:24:20;;;;;;;10.32;5.97;;;;;;;-0.65;100.00;98323.50;2091495;28;20275;-70
2021/11/27 04:25:21;;;;;;;12.30;6.53;;;;;;;-0.66;100.00;98326.94;2090703;28;20434;-70
2021/11/27 04:26:22;;;;;;;10.75;5.35;;;;;;;-0.66;100.00;98321.81;2090898;28;20047;-69
2021/11/27 04:27:23;;;;;;;8.85;5.13;;;;;;;-0.65;100.00;98323.50;2091433;28;20059;-70
2021/11/27 04:28:23;;;;;;;9.20;5.85;;;;;;;-0.65;100.00;98323.50;2090711;28;20032;-70
2021/11/27 04:29:24;;;;;;;9.05;5.50;;;;;;;-0.62;100.00;98337.91;2082635;28;20063;-69
2021/11/27 04:30:28;;;;;;;8.18;5.28;;;;;;;-0.56;100.00;98332.56;2090983;28;20457;-70
2021/11/27 04:31:29;;;;;;;10.80;4.93;;;;;;;-0.55;100.00;98332.50;2091441;28;20032;-70
2021/11/27 04:32:29;;;;;;;9.32;5.68;;;;;;;-0.52;100.00;98329.81;2090713;28;20162;-69
2021/11/27 04:33:30;;;;;;;10.95;5.60;;;;;;;-0.49;100.00;98334.00;2090906;28;20471;-70
2021/11/27 04:34:31;;;;;;;12.35;6.15;;;;;;;-0.47;100.00;98336.50;2090812;28;20028;-69
2021/11/27 04:35:32;;;;;;;11.67;6.87;;;;;;;-0.48;100.00;98335.66;2090960;28;20382;-69
2021/11/27 04:36:33;;;;;;;9.25;5.50;;;;;;;-0.46;100.00;98338.16;2091345;28;20728;-70
2021/11/27 04:37:33;;;;;;;12.00;5.87;;;;;;;-0.45;100.00;98337.28;2090728;28;20045;-70
2021/11/27 04:38:34;;;;;;;9.00;5.90;;;;;;;-0.44;100.00;98336.41;2090766;28;20122;-69
2021/11/27 04:39:34;;;;;;;10.73;5.40;;;;;;;-0.46;100.00;98339.00;2090661;28;20061;-69
2021/11/27 04:40:35;;;;;;;9.32;5.35;;;;;;;-0.47;100.00;98341.63;2090656;28;20511;-70
2021/11/27 04:41:36;;;;;;;12.02;6.15;;;;;;;-0.45;100.00;98339.84;2091266;28;20021;-70
2021/11/27 04:42:36;;;;;;;7.78;4.97;;;;;;;-0.47;100.00;98339.91;2091304;28;20032;-70
2021/11/27 04:43:37;;;;;;;11.23;5.13;;;;;;;-0.51;100.00;98340.91;2091175;28;20020;-70
2021/11/27 04:44:37;;;;;;;7.53;5.00;;;;;;;-0.58;100.00;98345.41;2091254;28;20279;-70
2021/11/27 04:45:38;;;;;;;10.53;5.53;;;;;;;-0.61;100.00;98347.25;2091301;28;20036;-70
2021/11/27 04:46:38;;;;;;;10.48;5.45;;;;;;;-0.60;100.00;98354.06;2091276;28;20374;-71